createdAt,value
2022-09-07T00:01:10.963Z,3.40
2022-09-07T00:03:38.613Z,3.40
2022-09-07T00:06:11.597Z,3.40
2022-09-07T00:08:40.740Z,3.70
2022-09-07T00:11:13.361Z,3.50
2022-09-07T00:13:42.691Z,3.40
2022-09-07T00:16:13.429Z,3.10
2022-09-07T00:18:45.732Z,3.50
2022-09-07T00:21:17.004Z,3.70
2022-09-07T00:23:45.614Z,3.40
2022-09-07T00:26:19.296Z,3.50
2022-09-07T00:28:47.967Z,3.60
2022-09-07T00:31:19.693Z,3.30
2022-09-07T00:33:49.117Z,3.30
2022-09-07T00:36:18.398Z,3.50
2022-09-07T00:38:46.473Z,3.30
2022-09-07T00:41:15.097Z,3.60
2022-09-07T00:43:49.448Z,3.40
2022-09-07T00:46:22.365Z,3.50
2022-09-07T00:48:57.091Z,3.40
2022-09-07T00:51:31.519Z,3.40
2022-09-07T00:54:08.775Z,3.40
2022-09-07T00:56:41.675Z,3.20
2022-09-07T00:59:10.808Z,3.50
2022-09-07T01:01:39.416Z,3.30
2022-09-07T01:04:08.490Z,3.40
2022-09-07T01:06:39.403Z,3.30
2022-09-07T01:09:12.175Z,3.30
2022-09-07T01:11:40.790Z,3.30
2022-09-07T01:14:14.107Z,3.50
2022-09-07T01:17:03.635Z,3.30
2022-09-07T01:19:40.525Z,3.70
2022-09-07T01:22:27.124Z,3.40
2022-09-07T01:25:13.183Z,3.60
2022-09-07T01:28:12.977Z,3.60
2022-09-07T01:30:50.707Z,3.40
2022-09-07T01:33:28.454Z,3.60
2022-09-07T01:36:02.233Z,3.70
2022-09-07T01:41:20.809Z,3.50
2022-09-07T01:43:58.553Z,3.70
2022-09-07T01:46:30.956Z,3.50
2022-09-07T01:49:08.838Z,3.70
2022-09-07T01:51:40.886Z,3.70
2022-09-07T01:54:22.351Z,3.10
2022-09-07T01:56:56.045Z,3.80
2022-09-07T02:02:28.375Z,3.70
2022-09-07T02:05:06.864Z,3.50
2022-09-07T02:07:45.653Z,3.50
2022-09-07T02:10:24.239Z,3.40
2022-09-07T02:12:55.043Z,3.50
2022-09-07T02:15:33.622Z,3.80
2022-09-07T02:18:04.704Z,3.80
2022-09-07T02:20:37.669Z,3.70
2022-09-07T02:23:17.131Z,3.70
2022-09-07T02:25:55.973Z,4.00
2022-09-07T02:28:30.550Z,3.30
2022-09-07T02:30:59.417Z,3.70
2022-09-07T02:33:28.601Z,3.80
2022-09-07T02:35:56.827Z,3.60
2022-09-07T02:38:25.670Z,3.40
2022-09-07T02:40:55.759Z,3.70
2022-09-07T02:43:25.267Z,3.60
2022-09-07T02:46:10.610Z,3.60
2022-09-07T02:48:51.316Z,3.80
2022-09-07T02:51:40.786Z,3.70
2022-09-07T02:54:30.608Z,4.40
2022-09-07T02:57:08.854Z,3.70
2022-09-07T02:59:36.408Z,4.00
2022-09-07T03:02:11.396Z,3.70
2022-09-07T03:05:11.170Z,3.80
2022-09-07T03:08:17.799Z,3.70
2022-09-07T03:10:46.440Z,4.00
2022-09-07T03:13:30.454Z,3.60
2022-09-07T03:15:58.786Z,4.00
2022-09-07T03:18:28.078Z,4.30
2022-09-07T03:20:56.287Z,3.60
2022-09-07T03:23:24.155Z,4.10
2022-09-07T03:25:52.713Z,4.10
2022-09-07T03:28:20.309Z,4.40
2022-09-07T03:30:48.402Z,4.30
2022-09-07T03:33:17.348Z,4.10
2022-09-07T03:35:46.315Z,3.90
2022-09-07T03:38:14.050Z,3.90
2022-09-07T03:40:41.668Z,4.00
2022-09-07T03:43:09.300Z,4.30
2022-09-07T03:45:37.023Z,4.10
2022-09-07T03:48:04.749Z,4.10
2022-09-07T03:50:32.519Z,3.90
2022-09-07T03:53:00.094Z,4.10
2022-09-07T03:55:27.663Z,3.90
2022-09-07T03:57:55.227Z,4.40
2022-09-07T04:00:22.866Z,4.10
2022-09-07T04:02:50.517Z,4.10
2022-09-07T04:05:18.224Z,3.80
2022-09-07T04:07:48.294Z,3.60
2022-09-07T04:10:15.975Z,3.90
2022-09-07T04:12:43.548Z,4.00
2022-09-07T04:15:11.597Z,3.80
2022-09-07T04:17:39.576Z,4.20
2022-09-07T04:20:08.056Z,4.00
2022-09-07T04:22:35.641Z,4.20
2022-09-07T04:25:03.410Z,4.00
2022-09-07T04:27:31.758Z,3.90
2022-09-07T04:29:59.350Z,4.10
2022-09-07T04:32:26.922Z,4.10
2022-09-07T04:34:54.495Z,4.30
2022-09-07T04:37:22.615Z,3.90
2022-09-07T04:39:50.284Z,4.30
2022-09-07T04:42:18.639Z,4.60
2022-09-07T04:44:49.172Z,4.20
2022-09-07T04:47:17.769Z,4.00
2022-09-07T04:49:45.342Z,4.50
2022-09-07T04:52:12.925Z,4.20
2022-09-07T04:54:40.495Z,4.40
2022-09-07T04:57:10.092Z,4.30
2022-09-07T04:59:37.931Z,4.40
2022-09-07T05:02:05.598Z,4.40
2022-09-07T05:04:35.994Z,4.40
2022-09-07T05:07:03.635Z,4.20
2022-09-07T05:09:31.391Z,4.10
2022-09-07T05:11:59.040Z,4.20
2022-09-07T05:14:26.652Z,4.60
2022-09-07T05:16:54.330Z,4.50
2022-09-07T05:19:22.852Z,4.40
2022-09-07T05:21:50.442Z,4.80
2022-09-07T05:24:18.175Z,4.60
2022-09-07T05:26:45.739Z,4.10
2022-09-07T05:32:01.433Z,4.10
2022-09-07T05:34:29.980Z,4.30
2022-09-07T05:36:58.376Z,4.20
2022-09-07T05:39:26.716Z,3.90
2022-09-07T05:41:54.667Z,4.20
2022-09-07T05:47:10.743Z,4.40
2022-09-07T05:49:38.494Z,4.30
2022-09-07T05:52:06.292Z,4.10
2022-09-07T05:54:33.862Z,4.20
2022-09-07T05:57:03.507Z,4.30
2022-09-07T05:59:31.256Z,4.40
2022-09-07T06:02:00.020Z,4.40
2022-09-07T06:04:27.771Z,4.60
2022-09-07T06:12:31.000Z,4.40
2022-09-07T06:14:59.596Z,4.70
2022-09-07T06:17:38.034Z,4.70
2022-09-07T06:20:07.573Z,5.00
2022-09-07T06:22:40.729Z,5.00
2022-09-07T06:25:08.735Z,4.80
2022-09-07T06:27:36.701Z,5.10
2022-09-07T06:30:05.420Z,4.70
2022-09-07T06:32:44.578Z,4.80
2022-09-07T06:35:14.599Z,5.20
2022-09-07T06:37:46.487Z,4.80
2022-09-07T06:40:17.198Z,4.90
2022-09-07T06:42:44.832Z,5.50
2022-09-07T06:45:16.090Z,5.00
2022-09-07T06:47:43.725Z,5.50
2022-09-07T06:50:12.271Z,5.10
2022-09-07T06:55:33.293Z,4.60
2022-09-07T06:58:00.916Z,4.40
2022-09-07T07:00:28.501Z,4.10
2022-09-07T07:02:56.164Z,4.00
2022-09-07T07:05:24.914Z,3.70
2022-09-07T07:07:52.571Z,3.60
2022-09-07T07:10:24.539Z,3.80
2022-09-07T07:12:57.508Z,3.30
2022-09-07T07:15:28.317Z,3.50
2022-09-07T07:18:00.621Z,3.80
2022-09-07T07:20:35.388Z,3.30
2022-09-07T07:23:03.702Z,3.30
2022-09-07T07:25:33.067Z,3.90
2022-09-07T07:30:48.744Z,3.10
2022-09-07T07:33:16.377Z,3.10
2022-09-07T07:35:43.946Z,3.40
2022-09-07T07:43:48.196Z,3.10
2022-09-07T07:46:18.361Z,3.10
2022-09-07T07:48:49.115Z,3.30
2022-09-07T07:51:16.714Z,3.60
2022-09-07T07:53:44.538Z,3.50
2022-09-07T07:56:12.782Z,3.20
2022-09-07T07:58:45.234Z,3.80
2022-09-07T08:01:15.975Z,3.50
2022-09-07T08:03:46.400Z,3.20
2022-09-07T08:06:18.356Z,3.60
2022-09-07T08:08:46.395Z,3.10
2022-09-07T08:11:17.591Z,2.80
2022-09-07T08:13:47.823Z,3.10
2022-09-07T08:16:17.086Z,3.00
2022-09-07T08:18:47.096Z,3.00
2022-09-07T08:21:16.194Z,3.10
2022-09-07T08:23:44.142Z,3.00
2022-09-07T08:26:12.751Z,3.00
2022-09-07T08:28:42.565Z,2.80
2022-09-07T08:31:13.014Z,2.60
2022-09-07T08:33:41.351Z,2.60
2022-09-07T08:36:13.193Z,2.90
2022-09-07T08:38:40.913Z,2.60
2022-09-07T08:41:40.669Z,2.70
2022-09-07T08:44:20.814Z,2.80
2022-09-07T08:46:52.770Z,2.40
2022-09-07T08:49:49.738Z,2.60
2022-09-07T08:52:27.437Z,2.60
2022-09-07T08:55:01.634Z,2.60
2022-09-07T08:57:33.039Z,2.70
2022-09-07T09:00:11.525Z,2.80
2022-09-07T09:05:35.817Z,2.70
2022-09-07T09:06:10.907Z,2.70
2022-09-07T09:08:19.239Z,2.40
2022-09-07T09:10:53.477Z,2.70
2022-09-07T09:13:40.477Z,2.90
2022-09-07T09:16:32.550Z,2.80
2022-09-07T09:19:32.063Z,2.70
2022-09-07T09:22:14.642Z,2.70
2022-09-07T09:25:05.760Z,3.90
2022-09-07T09:27:33.450Z,5.70
2022-09-07T09:30:01.055Z,3.60
2022-09-07T09:32:41.260Z,3.60
2022-09-07T09:35:38.568Z,4.50
2022-09-07T09:38:43.474Z,2.40
2022-09-07T09:41:15.696Z,2.30
2022-09-07T09:43:59.279Z,2.70
2022-09-07T09:46:35.935Z,2.50
2022-09-07T09:49:14.642Z,2.10
2022-09-07T09:54:42.025Z,6.80
2022-09-07T10:03:58.566Z,2.60
2022-09-07T10:06:28.807Z,2.40
2022-09-07T10:09:02.039Z,3.90
2022-09-07T10:14:43.137Z,3.10
2022-09-07T10:17:22.914Z,2.90
2022-09-07T10:19:50.585Z,3.60
2022-09-07T10:22:37.566Z,3.30
2022-09-07T10:25:41.175Z,3.80
2022-09-07T10:28:10.966Z,3.10
2022-09-07T10:31:14.115Z,2.30
2022-09-07T10:36:49.120Z,2.80
2022-09-07T10:39:38.209Z,2.30
2022-09-07T10:42:38.957Z,2.40
2022-09-07T10:45:42.095Z,2.30
2022-09-07T10:48:31.332Z,2.60
2022-09-07T10:51:13.424Z,2.30
2022-09-07T10:57:06.195Z,2.70
2022-09-07T11:00:09.693Z,2.90
2022-09-07T11:06:06.387Z,2.60
2022-09-07T11:12:03.118Z,2.50
2022-09-07T11:14:42.740Z,2.50
2022-09-07T11:17:30.494Z,2.70
2022-09-07T11:20:14.961Z,3.40
2022-09-07T11:22:49.523Z,2.70
2022-09-07T11:25:35.906Z,2.60
2022-09-07T11:28:14.450Z,3.00
2022-09-07T11:31:00.063Z,3.60
2022-09-07T11:33:42.099Z,2.40
2022-09-07T11:36:17.789Z,4.30
2022-09-07T11:39:35.436Z,6.30
2022-09-07T11:45:38.896Z,5.20
2022-09-07T11:48:23.447Z,2.70
2022-09-07T11:50:59.153Z,2.60
2022-09-07T11:53:31.712Z,2.70
2022-09-07T11:56:05.640Z,3.80
2022-09-07T11:58:45.873Z,4.70
2022-09-07T12:01:24.589Z,3.60
2022-09-07T12:04:25.250Z,2.10
2022-09-07T12:07:22.041Z,2.50
2022-09-07T12:10:12.941Z,2.70
2022-09-07T12:12:56.676Z,2.30
2022-09-07T12:15:38.170Z,2.90
2022-09-07T12:18:37.926Z,2.30
2022-09-07T12:21:41.678Z,2.80
2022-09-07T12:24:41.392Z,2.70
2022-09-07T12:27:31.742Z,2.20
2022-09-07T12:30:02.119Z,2.40
2022-09-07T12:32:57.087Z,2.10
2022-09-07T12:35:31.595Z,2.30
2022-09-07T12:38:00.714Z,2.20
2022-09-07T12:40:32.334Z,2.80
2022-09-07T12:43:15.948Z,2.10
2022-09-07T12:45:43.601Z,1.90
2022-09-07T12:48:16.963Z,2.90
2022-09-07T12:51:59.348Z,2.20
2022-09-07T12:54:37.056Z,1.80
2022-09-07T12:57:32.692Z,2.20
2022-09-07T13:00:24.339Z,2.20
2022-09-07T13:07:01.680Z,1.70
2022-09-07T13:09:21.199Z,1.70
2022-09-07T13:11:49.008Z,1.70
2022-09-07T13:14:24.317Z,1.70
2022-09-07T13:17:27.934Z,2.00
2022-09-07T13:19:55.657Z,4.50
2022-09-07T13:22:49.319Z,1.50
2022-09-07T13:25:23.812Z,2.10
2022-09-07T13:28:23.712Z,1.50
2022-09-07T13:31:00.849Z,1.10
2022-09-07T13:33:28.565Z,1.60
2022-09-07T13:36:00.351Z,1.90
2022-09-07T13:38:30.063Z,1.90
2022-09-07T13:41:07.364Z,1.20
2022-09-07T13:43:36.232Z,1.40
2022-09-07T13:46:14.393Z,1.70
2022-09-07T13:48:52.344Z,1.20
2022-09-07T13:51:32.666Z,1.30
2022-09-07T13:54:14.444Z,1.40
2022-09-07T13:57:01.270Z,1.90
2022-09-07T13:59:33.455Z,1.40
2022-09-07T14:02:01.986Z,1.10
2022-09-07T14:04:37.270Z,1.50
2022-09-07T14:07:22.596Z,1.10
2022-09-07T14:10:04.660Z,1.60
2022-09-07T14:12:37.152Z,1.40
2022-09-07T14:15:37.030Z,1.00
2022-09-07T14:18:10.755Z,1.30
2022-09-07T14:20:43.665Z,1.40
2022-09-07T14:23:29.733Z,1.00
2022-09-07T14:26:18.371Z,0.90
2022-09-07T14:28:50.378Z,1.50
2022-09-07T14:31:21.531Z,1.20
2022-09-07T14:33:51.128Z,1.50
2022-09-07T14:36:42.388Z,1.20
2022-09-07T14:39:11.706Z,1.00
2022-09-07T14:41:41.836Z,1.30
2022-09-07T14:44:46.744Z,1.10
2022-09-07T14:47:33.817Z,1.10
2022-09-07T14:50:06.281Z,1.30
2022-09-07T14:52:43.702Z,3.50
2022-09-07T14:55:42.897Z,2.40
2022-09-07T14:58:13.648Z,1.40
2022-09-07T15:00:43.448Z,1.60
2022-09-07T15:03:30.333Z,1.50
2022-09-07T15:06:01.231Z,2.30
2022-09-07T15:08:46.389Z,1.50
2022-09-07T15:11:35.719Z,2.20
2022-09-07T15:14:11.240Z,1.40
2022-09-07T15:16:43.179Z,1.90
2022-09-07T15:19:16.678Z,1.40
2022-09-07T15:21:45.424Z,1.90
2022-09-07T15:24:12.977Z,2.10
2022-09-07T15:27:04.508Z,2.40
2022-09-07T15:29:32.822Z,4.20
2022-09-07T15:32:04.941Z,6.30
2022-09-07T15:34:34.347Z,6.20
2022-09-07T15:37:03.648Z,4.40
2022-09-07T15:39:34.343Z,5.90
2022-09-07T15:42:59.527Z,1.90
2022-09-07T15:44:50.609Z,1.90
2022-09-07T15:50:07.678Z,2.00
2022-09-07T15:52:35.722Z,1.60
2022-09-07T15:55:03.598Z,1.50
2022-09-07T16:00:19.911Z,2.00
2022-09-07T16:03:05.787Z,2.20
2022-09-07T16:05:34.503Z,2.10
2022-09-07T16:10:55.742Z,3.80
2022-09-07T16:13:24.641Z,7.00
2022-09-07T16:15:52.424Z,5.50
2022-09-07T16:18:20.334Z,4.90
2022-09-07T16:20:52.746Z,6.10
2022-09-07T16:23:20.827Z,16.40
2022-09-07T16:25:57.221Z,30.10
2022-09-07T16:28:25.857Z,23.30
2022-09-07T16:30:54.226Z,19.30
2022-09-07T16:33:23.868Z,14.70
2022-09-07T16:36:01.892Z,13.10
2022-09-07T16:38:47.594Z,9.90
2022-09-07T16:41:34.663Z,9.00
2022-09-07T16:44:02.767Z,8.60
2022-09-07T16:46:36.653Z,8.30
2022-09-07T16:49:05.509Z,8.20
2022-09-07T16:51:34.451Z,6.60
2022-09-07T16:54:03.409Z,12.50
2022-09-07T16:56:38.244Z,9.60
2022-09-07T16:59:09.612Z,8.90
2022-09-07T17:01:38.122Z,9.00
2022-09-07T17:04:10.697Z,8.60
2022-09-07T17:06:40.278Z,7.40
2022-09-07T17:09:08.447Z,6.70
2022-09-07T17:11:36.794Z,5.90
2022-09-07T17:14:06.495Z,4.40
2022-09-07T17:16:37.007Z,4.20
2022-09-07T17:21:55.507Z,4.70
2022-09-07T17:24:25.384Z,3.80
2022-09-07T17:26:52.969Z,5.20
2022-09-07T17:29:20.692Z,5.50
2022-09-07T17:34:36.113Z,4.80
2022-09-07T17:37:03.778Z,4.50
2022-09-07T17:39:31.497Z,4.40
2022-09-07T17:41:59.234Z,3.90
2022-09-07T17:44:30.714Z,4.20
2022-09-07T17:46:59.665Z,4.20
2022-09-07T17:49:29.316Z,4.20
2022-09-07T17:51:58.513Z,5.20
2022-09-07T17:54:26.751Z,5.00
2022-09-07T17:56:54.386Z,5.20
2022-09-07T18:02:12.299Z,4.30
2022-09-07T18:04:40.015Z,3.90
2022-09-07T18:07:07.919Z,4.00
2022-09-07T18:09:35.693Z,3.40
2022-09-07T18:12:03.822Z,3.60
2022-09-07T18:14:31.753Z,3.60
2022-09-07T18:16:59.333Z,4.10
2022-09-07T18:19:27.071Z,4.60
2022-09-07T18:21:54.710Z,5.20
2022-09-07T18:24:24.142Z,4.70
2022-09-07T18:26:53.805Z,5.00
2022-09-07T18:29:33.942Z,4.40
2022-09-07T18:32:08.065Z,4.00
2022-09-07T18:34:41.187Z,4.40
2022-09-07T18:37:11.985Z,4.10
2022-09-07T18:39:40.717Z,4.60
2022-09-07T18:42:09.452Z,3.70
2022-09-07T18:47:28.778Z,3.80
2022-09-07T18:49:58.048Z,4.90
2022-09-07T18:55:14.122Z,4.60
2022-09-07T18:57:42.330Z,4.30
2022-09-07T19:00:11.222Z,4.40
2022-09-07T19:02:39.294Z,4.30
2022-09-07T19:07:55.255Z,4.20
2022-09-07T19:10:23.103Z,4.00
2022-09-07T19:12:50.874Z,3.90
2022-09-07T19:15:20.444Z,4.00
2022-09-07T19:17:48.158Z,3.70
2022-09-07T19:20:16.065Z,3.80
2022-09-07T19:22:43.988Z,3.60
2022-09-07T19:25:11.639Z,3.60
2022-09-07T19:27:39.334Z,3.90
2022-09-07T19:30:07.533Z,3.80
2022-09-07T19:32:35.113Z,4.10
2022-09-07T19:35:02.896Z,14.10
2022-09-07T19:37:32.673Z,19.60
2022-09-07T19:40:01.759Z,12.20
2022-09-07T19:42:29.668Z,12.50
2022-09-07T19:44:57.298Z,8.60
2022-09-07T19:47:25.067Z,21.70
2022-09-07T19:49:52.821Z,24.60
2022-09-07T19:52:20.460Z,28.00
2022-09-07T19:54:48.112Z,16.60
2022-09-07T19:57:15.734Z,12.90
2022-09-07T19:59:45.468Z,9.90
2022-09-07T20:02:13.400Z,8.40
2022-09-07T20:04:41.275Z,5.80
2022-09-07T20:07:08.929Z,6.30
2022-09-07T20:09:36.778Z,5.20
2022-09-07T20:12:06.739Z,4.90
2022-09-07T20:14:34.776Z,4.30
2022-09-07T20:17:02.655Z,4.90
2022-09-07T20:19:30.263Z,4.70
2022-09-07T20:21:58.110Z,4.90
2022-09-07T20:24:25.930Z,4.80
2022-09-07T20:26:53.722Z,5.20
2022-09-07T20:29:27.837Z,5.40
2022-09-07T20:31:58.440Z,4.80
2022-09-07T20:34:27.845Z,4.20
2022-09-07T20:36:56.883Z,4.30
2022-09-07T20:39:24.998Z,4.00
2022-09-07T20:41:52.648Z,4.10
2022-09-07T20:44:20.258Z,4.10
2022-09-07T20:46:48.028Z,4.40
2022-09-07T20:49:16.003Z,4.40
2022-09-07T20:51:43.638Z,4.30
2022-09-07T20:54:11.273Z,4.70
2022-09-07T20:56:38.907Z,4.80
2022-09-07T20:59:06.862Z,5.00
2022-09-07T21:01:35.192Z,4.90
2022-09-07T21:04:03.909Z,4.40
2022-09-07T21:06:32.819Z,4.90
2022-09-07T21:09:00.879Z,5.40
2022-09-07T21:11:31.825Z,5.00
2022-09-07T21:14:07.669Z,4.80
2022-09-07T21:16:35.974Z,4.70
2022-09-07T21:19:07.241Z,4.60
2022-09-07T21:21:38.855Z,4.90
2022-09-07T21:24:16.963Z,4.70
2022-09-07T21:26:44.987Z,4.80
2022-09-07T21:29:17.194Z,5.00
2022-09-07T21:31:45.098Z,4.80
2022-09-07T21:34:13.983Z,4.90
2022-09-07T21:36:41.721Z,5.10
2022-09-07T21:39:14.183Z,5.20
2022-09-07T21:41:43.612Z,5.50
2022-09-07T21:44:13.879Z,4.80
2022-09-07T21:46:42.700Z,5.20
2022-09-07T21:49:11.107Z,5.20
2022-09-07T21:51:38.993Z,4.90
2022-09-07T21:54:06.777Z,5.20
2022-09-07T21:56:34.635Z,5.40
2022-09-07T21:59:02.635Z,5.00
2022-09-07T22:01:31.652Z,4.80
2022-09-07T22:04:02.248Z,4.80
2022-09-07T22:06:32.139Z,4.70
2022-09-07T22:09:00.752Z,5.00
2022-09-07T22:11:29.616Z,5.30
2022-09-07T22:14:00.553Z,4.80
2022-09-07T22:16:29.401Z,5.20
2022-09-07T22:18:57.534Z,4.60
2022-09-07T22:21:27.965Z,5.40
2022-09-07T22:23:59.209Z,5.10
2022-09-07T22:26:29.050Z,5.00
2022-09-07T22:28:57.870Z,5.00
2022-09-07T22:31:28.988Z,4.90
2022-09-07T22:33:58.308Z,4.20
2022-09-07T22:36:29.265Z,4.80
2022-09-07T22:38:58.965Z,4.50
2022-09-07T22:41:38.214Z,4.20
2022-09-07T22:44:10.069Z,4.40
2022-09-07T22:46:39.457Z,4.70
2022-09-07T22:49:08.953Z,4.30
2022-09-07T22:51:36.539Z,4.40
2022-09-07T22:54:04.812Z,4.30
2022-09-07T22:56:34.102Z,4.70
2022-09-07T22:59:07.521Z,4.20
2022-09-07T23:01:36.602Z,4.40
2022-09-07T23:04:05.785Z,4.40
2022-09-07T23:06:36.547Z,4.40
2022-09-07T23:09:10.824Z,4.30
2022-09-07T23:11:39.251Z,4.50
2022-09-07T23:14:13.180Z,4.40
2022-09-07T23:16:41.668Z,4.30
2022-09-07T23:19:14.939Z,4.60
2022-09-07T23:21:43.347Z,4.40
2022-09-07T23:24:17.310Z,4.20
2022-09-07T23:26:46.887Z,4.40
2022-09-07T23:29:15.553Z,4.50
2022-09-07T23:31:45.509Z,4.40
2022-09-07T23:34:13.531Z,4.40
2022-09-07T23:36:41.134Z,4.20
2022-09-07T23:39:09.450Z,4.30
2022-09-07T23:41:37.019Z,4.30
2022-09-07T23:44:04.701Z,4.00
2022-09-07T23:46:32.403Z,4.00
2022-09-07T23:49:00.164Z,4.40
2022-09-07T23:51:27.964Z,4.30
2022-09-07T23:53:55.555Z,4.60
2022-09-07T23:56:24.725Z,4.00
2022-09-07T23:58:52.569Z,4.20
